Time;durP1;ratioP1;P1;durP2;ratioP2;P2;SDS_P1;SDS_P2;PMS_P1;PMS_P2;Temp;Humidity;BMP_temperature;BMP_pressure;BME280_temperature;BME280_humidity;BME280_pressure;Samples;Min_cycle;Max_cycle;Signal;HPM_P1;HPM_P2
2023/07/11 00:01:01;;;;;;;7.25;2.75;;;;;;;25.66;37.93;101102.72;5021732;28;20511;-67
2023/07/11 00:03:28;;;;;;;8.27;3.08;;;;;;;25.67;37.71;101106.31;5030015;28;20133;-68
2023/07/11 00:06:00;;;;;;;7.70;2.47;;;;;;;25.66;37.69;101099.91;5022814;28;20041;-68
2023/07/11 00:08:27;;;;;;;7.43;2.28;;;;;;;25.63;38.34;101095.03;5023236;28;20076;-68
2023/07/11 00:10:55;;;;;;;9.50;2.67;;;;;;;25.71;38.16;101102.31;5023634;28;20058;-68
2023/07/11 00:13:23;;;;;;;10.15;2.75;;;;;;;25.82;37.90;101102.28;5011133;28;20046;-68
2023/07/11 00:16:06;;;;;;;7.40;2.38;;;;;;;25.74;38.25;101098.66;5011284;28;20049;-67
2023/07/11 00:18:34;;;;;;;9.30;2.75;;;;;;;25.67;38.61;101093.03;5011518;28;20053;-69
2023/07/11 00:21:03;;;;;;;5.85;2.22;;;;;;;25.46;38.77;101084.59;5039082;27;20553;-68
2023/07/11 00:23:31;;;;;;;10.85;2.55;;;;;;;25.59;38.54;101088.63;5030066;28;20057;-68
2023/07/11 00:25:58;;;;;;;9.93;2.35;;;;;;;25.47;38.69;101094.69;5033928;28;20105;-67
2023/07/11 00:28:26;;;;;;;6.93;2.70;;;;;;;25.49;38.53;101095.88;5033782;28;20072;-67
2023/07/11 00:30:54;;;;;;;7.63;2.25;;;;;;;25.44;38.73;101084.19;5025077;28;20049;-68
2023/07/11 00:33:22;;;;;;;10.35;2.88;;;;;;;25.39;39.28;101073.34;5011123;28;20056;-68
2023/07/11 00:35:51;;;;;;;11.50;2.60;;;;;;;25.35;38.98;101092.25;5034762;28;20476;-68
2023/07/11 00:38:19;;;;;;;9.70;2.50;;;;;;;25.21;39.53;101083.81;5028312;28;20068;-69
2023/07/11 00:40:49;;;;;;;5.75;2.22;;;;;;;25.36;39.60;101083.44;5022271;28;20152;-68
2023/07/11 00:43:20;;;;;;;10.50;2.50;;;;;;;25.00;39.91;101078.16;5032135;27;20065;-67
2023/07/11 00:46:12;;;;;;;8.35;2.83;;;;;;;25.12;39.85;101074.94;5025539;28;20064;-67
2023/07/11 00:48:45;;;;;;;9.32;2.30;;;;;;;24.90;40.40;101076.94;5022791;28;20056;-67
2023/07/11 00:51:17;;;;;;;6.82;2.95;;;;;;;25.05;40.35;101074.94;5007274;28;20260;-67
2023/07/11 00:53:46;;;;;;;6.50;2.70;;;;;;;25.33;39.58;101077.75;5023742;28;20555;-60
2023/07/11 00:56:18;;;;;;;10.88;3.00;;;;;;;25.36;39.92;101079.75;5021516;28;20042;-61
2023/07/11 00:58:46;;;;;;;9.60;2.40;;;;;;;24.94;40.48;101074.13;5023957;28;20045;-61
2023/07/11 01:01:14;;;;;;;7.55;2.50;;;;;;;24.89;40.86;101075.34;5034065;27;20044;-60
2023/07/11 01:03:42;;;;;;;5.43;1.83;;;;;;;24.87;41.02;101077.75;5023403;28;20509;-63
2023/07/11 01:06:14;;;;;;;9.10;2.35;;;;;;;24.88;41.00;101073.72;5021906;28;20061;-61
2023/07/11 01:08:43;;;;;;;10.00;2.65;;;;;;;24.74;41.30;101079.34;5010075;28;20061;-60
2023/07/11 01:11:10;;;;;;;10.70;2.80;;;;;;;25.06;40.48;101073.72;5076272;27;20050;-61
2023/07/11 01:13:38;;;;;;;12.45;2.92;;;;;;;25.09;40.50;101072.94;5133673;27;20653;-60
2023/07/11 01:16:09;;;;;;;8.65;2.60;;;;;;;25.01;40.69;101074.94;5064093;27;20504;-60
2023/07/11 01:18:37;;;;;;;5.90;2.20;;;;;;;25.05;40.75;101070.13;5047133;27;20057;-59
2023/07/11 01:21:05;;;;;;;8.70;2.60;;;;;;;25.11;40.79;101062.03;5002264;28;20050;-61
2023/07/11 01:23:33;;;;;;;8.25;2.75;;;;;;;25.13;40.84;101066.09;5080540;27;20058;-68
2023/07/11 01:26:03;;;;;;;7.93;2.65;;;;;;;25.17;40.74;101066.09;5115972;27;20051;-67
2023/07/11 01:28:31;;;;;;;8.20;2.47;;;;;;;25.08;40.86;101063.66;5041768;27;20057;-66
2023/07/11 01:30:59;;;;;;;7.47;2.30;;;;;;;25.09;40.93;101070.13;4992868;28;20054;-66
2023/07/11 01:33:27;;;;;;;8.52;2.10;;;;;;;25.03;41.14;101060.44;5003058;28;20074;-67
2023/07/11 01:35:55;;;;;;;6.57;2.30;;;;;;;25.09;41.04;101059.63;5015982;28;20046;-68
2023/07/11 01:38:24;;;;;;;7.18;2.72;;;;;;;25.17;41.22;101071.72;5006999;28;20054;-67
2023/07/11 01:40:51;;;;;;;10.77;3.00;;;;;;;24.80;41.29;101054.41;5026786;28;20072;-67
2023/07/11 01:43:20;;;;;;;7.00;2.70;;;;;;;24.78;41.76;101053.97;5017915;28;20053;-68
2023/07/11 01:45:48;;;;;;;6.85;2.38;;;;;;;24.89;41.99;101054.81;5024094;28;20053;-60
2023/07/11 01:48:15;;;;;;;8.10;2.42;;;;;;;24.80;41.68;101048.75;5025543;28;20041;-60
2023/07/11 01:50:42;;;;;;;6.68;2.40;;;;;;;24.71;42.37;101042.72;5028911;28;20053;-60
2023/07/11 01:53:10;;;;;;;9.43;2.90;;;;;;;24.94;41.77;101040.31;5019760;28;20061;-60
2023/07/11 01:55:38;;;;;;;7.55;2.92;;;;;;;25.03;41.80;101044.34;5037656;28;20092;-60
2023/07/11 01:58:06;;;;;;;8.35;2.80;;;;;;;24.88;42.35;101042.72;5018092;28;20057;-59
2023/07/11 02:00:34;;;;;;;5.22;2.67;;;;;;;24.59;42.50;101032.63;5026175;28;20061;-61
2023/07/11 02:03:01;;;;;;;7.55;2.58;;;;;;;24.68;42.67;101038.66;5025301;28;20053;-60
2023/07/11 02:05:29;;;;;;;6.55;2.25;;;;;;;24.67;42.43;101037.03;5023716;28;20049;-60
2023/07/11 02:07:56;;;;;;;7.03;2.10;;;;;;;24.67;42.73;101039.06;5023064;28;20372;-68
2023/07/11 02:10:23;;;;;;;8.02;2.40;;;;;;;24.69;42.46;101040.28;5033802;28;20055;-68
2023/07/11 02:12:51;;;;;;;6.38;2.20;;;;;;;24.74;42.42;101030.66;5028669;28;20060;-68
2023/07/11 02:15:18;;;;;;;15.10;2.50;;;;;;;24.76;42.59;101033.88;5028396;28;20045;-67
2023/07/11 02:17:46;;;;;;;7.85;2.60;;;;;;;24.66;42.83;101020.53;5031520;27;20467;-67
2023/07/11 02:20:15;;;;;;;7.32;2.60;;;;;;;24.78;42.65;101018.16;5010305;28;20696;-69
2023/07/11 02:22:43;;;;;;;9.55;2.50;;;;;;;24.73;42.92;101020.56;5008905;28;20045;-68
2023/07/11 02:25:10;;;;;;;10.52;2.33;;;;;;;24.66;42.74;101020.53;5027878;28;20053;-67
2023/07/11 02:27:38;;;;;;;7.85;2.42;;;;;;;24.61;42.88;101018.13;5024329;28;20050;-67
2023/07/11 02:30:05;;;;;;;8.20;2.75;;;;;;;24.49;43.10;101011.69;5026681;28;20398;-67
2023/07/11 02:32:33;;;;;;;8.32;2.70;;;;;;;24.50;43.38;101013.28;5029904;28;20049;-68
2023/07/11 02:35:01;;;;;;;10.45;2.90;;;;;;;24.66;43.21;101003.63;5029269;28;20054;-67
2023/07/11 02:37:28;;;;;;;9.55;2.03;;;;;;;24.57;43.51;101008.84;5034674;28;20060;-67
2023/07/11 02:39:55;;;;;;;8.70;2.58;;;;;;;24.32;43.88;101006.81;5028054;28;20053;-66
2023/07/11 02:42:23;;;;;;;6.78;2.22;;;;;;;24.49;43.79;101008.06;5027218;28;20072;-67
2023/07/11 02:44:50;;;;;;;8.70;2.40;;;;;;;24.34;44.11;101009.22;5027142;28;20065;-66
2023/07/11 02:47:17;;;;;;;9.93;2.55;;;;;;;24.35;44.07;101000.41;5028820;28;20045;-67
2023/07/11 02:49:45;;;;;;;5.47;2.30;;;;;;;24.33;44.46;100993.56;5009273;28;20041;-68
2023/07/11 02:52:12;;;;;;;11.50;2.78;;;;;;;24.11;44.89;100997.53;5028116;28;20072;-67
2023/07/11 02:54:39;;;;;;;7.85;2.50;;;;;;;24.12;44.88;100991.50;5028065;28;20049;-67
2023/07/11 02:57:08;;;;;;;7.47;2.80;;;;;;;23.97;45.13;100989.81;5029797;28;20050;-68
2023/07/11 02:59:35;;;;;;;8.02;2.67;;;;;;;24.14;45.04;100996.72;5027700;28;20045;-66
2023/07/11 03:02:03;;;;;;;14.80;3.10;;;;;;;24.15;45.07;100985.06;5025577;28;20064;-66
2023/07/11 03:04:31;;;;;;;10.85;3.28;;;;;;;24.19;45.25;100983.06;5013146;28;20046;-69
2023/07/11 03:06:59;;;;;;;17.33;3.55;;;;;;;23.91;45.57;100991.41;5030483;28;20038;-67
2023/07/11 03:09:27;;;;;;;7.20;2.58;;;;;;;23.93;45.43;100986.19;5029310;28;20053;-60
2023/07/11 03:11:54;;;;;;;10.73;2.70;;;;;;;23.86;45.87;100982.53;5036449;28;20057;-66
2023/07/11 03:14:22;;;;;;;8.60;2.83;;;;;;;24.14;45.26;100980.66;5032359;27;20053;-66
2023/07/11 03:16:52;;;;;;;11.07;2.90;;;;;;;24.08;45.46;100978.59;5110155;27;20053;-68
2023/07/11 03:19:20;;;;;;;9.75;2.80;;;;;;;24.10;45.51;100977.03;5016476;28;20053;-67
2023/07/11 03:25:48;;;;;;;8.48;2.85;;;;;;;24.15;45.42;100973.81;5014734;28;20206;-67
2023/07/11 03:28:16;;;;;;;10.00;2.72;;;;;;;24.19;45.37;100968.19;5109618;27;20051;-67
2023/07/11 03:30:43;;;;;;;12.10;2.50;;;;;;;24.05;45.59;100962.53;5135990;27;20058;-68
2023/07/11 03:33:10;;;;;;;7.60;2.58;;;;;;;23.98;46.02;100959.66;5080400;27;20433;-67
2023/07/11 03:35:38;;;;;;;11.43;3.00;;;;;;;24.01;45.90;100962.50;5025453;28;20376;-68
2023/07/11 03:38:05;;;;;;;15.18;3.13;;;;;;;23.92;46.24;100956.41;5036430;28;20077;-68
2023/07/11 03:40:32;;;;;;;8.68;2.92;;;;;;;24.07;45.86;100951.69;5022102;28;20068;-66
2023/07/11 03:43:00;;;;;;;10.68;2.78;;;;;;;24.02;46.17;100950.06;5009768;28;20053;-61
2023/07/11 03:45:27;;;;;;;12.05;3.25;;;;;;;23.94;46.05;100954.03;5024211;28;20041;-60
2023/07/11 03:47:55;;;;;;;10.40;2.97;;;;;;;23.92;46.34;100947.97;5025687;28;20045;-59
2023/07/11 03:50:22;;;;;;;8.40;2.88;;;;;;;24.11;45.89;100947.66;5003951;28;20050;-60
2023/07/11 03:52:50;;;;;;;14.38;2.60;;;;;;;24.12;45.72;100952.09;5032191;28;20053;-68
2023/07/11 03:55:17;;;;;;;9.32;2.33;;;;;;;23.99;46.49;100947.22;5016549;28;20490;-60
2023/07/11 03:57:44;;;;;;;8.85;2.85;;;;;;;23.83;46.71;100944.75;5019843;28;20484;-60
2023/07/11 04:00:12;;;;;;;10.73;2.60;;;;;;;23.57;47.58;100953.50;5026540;28;20053;-61
2023/07/11 04:02:39;;;;;;;7.32;2.78;;;;;;;23.63;47.37;100954.72;5026376;28;20056;-61
2023/07/11 04:05:07;;;;;;;11.23;2.80;;;;;;;23.90;46.92;100947.56;5024707;28;20049;-65
2023/07/11 04:07:35;;;;;;;10.43;3.05;;;;;;;23.77;47.30;100945.53;5025127;28;20049;-60
2023/07/11 04:10:05;;;;;;;6.22;2.55;;;;;;;23.70;47.65;100937.06;5028989;28;20068;-61
2023/07/11 04:12:32;;;;;;;10.13;2.80;;;;;;;23.75;47.47;100939.47;5012167;28;20439;-60
2023/07/11 04:15:00;;;;;;;13.20;3.05;;;;;;;23.68;47.64;100937.47;5026406;28;20046;-60
2023/07/11 04:17:28;;;;;;;8.90;2.60;;;;;;;23.65;47.65;100941.06;5026931;28;20543;-60
2023/07/11 04:19:55;;;;;;;8.82;3.03;;;;;;;23.87;47.24;100942.75;5028385;28;20575;-60
2023/07/11 04:22:22;;;;;;;10.20;2.83;;;;;;;23.66;48.07;100941.88;5026522;28;20050;-60
2023/07/11 04:24:50;;;;;;;9.32;2.67;;;;;;;23.42;48.49;100935.75;5023143;28;20053;-60
2023/07/11 04:27:19;;;;;;;12.32;2.90;;;;;;;23.33;48.65;100940.94;5020068;28;20057;-61
2023/07/11 04:29:46;;;;;;;11.20;2.83;;;;;;;23.13;49.46;100941.59;5029390;28;20037;-59
2023/07/11 04:32:14;;;;;;;12.45;2.90;;;;;;;23.17;49.28;100936.81;5015385;28;20061;-61
2023/07/11 04:34:41;;;;;;;11.38;2.92;;;;;;;23.09;49.68;100937.97;5024710;28;20072;-62
2023/07/11 04:37:08;;;;;;;10.70;3.10;;;;;;;22.91;50.24;100935.03;5023746;28;20049;-60
2023/07/11 04:39:39;;;;;;;13.18;3.60;;;;;;;23.16;49.66;100938.00;5030213;27;20052;-61
2023/07/11 04:42:07;;;;;;;9.02;3.50;;;;;;;23.11;49.64;100936.38;5020975;28;20054;-60
2023/07/11 04:44:34;;;;;;;12.05;3.08;;;;;;;23.35;49.11;100937.72;5023137;28;20050;-61
2023/07/11 04:47:01;;;;;;;12.02;3.70;;;;;;;23.31;49.19;100934.09;5025645;28;20409;-61
2023/07/11 04:49:29;;;;;;;15.48;4.13;;;;;;;23.66;48.32;100941.88;5024889;28;20049;-60
2023/07/11 04:51:56;;;;;;;15.02;4.10;;;;;;;23.51;48.73;100935.41;5026188;28;20060;-61
2023/07/11 04:54:24;;;;;;;10.95;4.10;;;;;;;23.32;49.00;100927.28;5025156;28;20041;-61
2023/07/11 04:56:58;;;;;;;15.85;4.30;;;;;;;23.35;49.26;100932.91;5025185;28;20053;-60
2023/07/11 04:59:26;;;;;;;12.95;4.43;;;;;;;23.35;49.42;100934.91;5027685;28;20045;-61
2023/07/11 05:01:53;;;;;;;8.82;3.97;;;;;;;23.44;48.82;100935.38;5024551;28;20059;-61
2023/07/11 05:04:20;;;;;;;14.13;3.88;;;;;;;23.56;49.04;100937.81;5025095;28;20067;-61
2023/07/11 05:06:48;;;;;;;10.40;3.83;;;;;;;23.68;48.52;100933.84;5012893;28;20051;-61
2023/07/11 05:09:17;;;;;;;13.60;4.22;;;;;;;23.52;48.86;100937.00;5009956;28;20046;-60
2023/07/11 05:11:45;;;;;;;12.27;3.72;;;;;;;23.27;49.31;100947.31;5037146;28;20057;-61
2023/07/11 05:14:12;;;;;;;11.02;3.83;;;;;;;23.56;48.98;100943.44;5047830;27;20050;-61
2023/07/11 05:16:39;;;;;;;10.40;4.07;;;;;;;23.80;48.47;100944.75;5024629;28;20046;-60
2023/07/11 05:19:07;;;;;;;13.38;3.63;;;;;;;23.81;48.48;100946.34;5030292;28;20053;-61
2023/07/11 05:21:34;;;;;;;13.38;3.78;;;;;;;23.83;48.40;100943.94;5019058;28;20053;-60
2023/07/11 05:24:02;;;;;;;8.35;3.20;;;;;;;23.43;48.88;100945.78;5091545;27;20043;-60
2023/07/11 05:26:30;;;;;;;10.23;3.25;;;;;;;23.64;48.66;100939.44;5033871;28;20500;-62
2023/07/11 05:28:58;;;;;;;8.48;3.38;;;;;;;23.90;48.58;100941.94;5056179;27;20050;-62
2023/07/11 05:31:26;;;;;;;9.40;2.97;;;;;;;24.08;48.06;100939.19;5081333;27;20065;-61
2023/07/11 05:33:53;;;;;;;11.80;3.20;;;;;;;23.72;49.33;100934.66;5024170;28;20053;-61
2023/07/11 05:38:54;;;;;;;7.50;2.70;;;;;;;24.19;48.33;100938.03;5015492;28;20050;-62
2023/07/11 05:41:22;;;;;;;7.88;2.75;;;;;;;23.97;48.46;100932.72;5023276;28;20045;-61
2023/07/11 05:43:49;;;;;;;9.35;2.47;;;;;;;24.13;48.19;100931.16;5024549;28;20054;-61
2023/07/11 05:46:16;;;;;;;8.30;2.80;;;;;;;23.96;48.40;100929.09;5026296;27;20043;-65
2023/07/11 05:48:44;;;;;;;10.25;3.08;;;;;;;23.97;48.31;100927.88;5029008;28;20041;-61
2023/07/11 05:51:14;;;;;;;10.10;2.75;;;;;;;23.94;48.53;100922.25;5027647;28;20046;-62
2023/07/11 05:53:42;;;;;;;10.82;2.65;;;;;;;24.30;47.83;100921.94;5032299;28;20046;-61
2023/07/11 05:56:10;;;;;;;11.32;2.38;;;;;;;24.63;46.88;100922.75;5026692;28;20053;-61
2023/07/11 05:58:37;;;;;;;11.85;3.90;;;;;;;24.75;46.63;100917.53;5023444;28;20041;-60
2023/07/11 06:01:07;;;;;;;19.85;4.72;;;;;;;24.77;46.59;100917.13;5024087;28;20056;-61
2023/07/11 06:03:34;;;;;;;9.45;4.05;;;;;;;24.72;46.75;100920.38;5023888;28;20057;-62
2023/07/11 06:06:04;;;;;;;18.02;3.20;;;;;;;24.79;46.41;100917.53;5025906;28;20510;-61
2023/07/11 06:08:32;;;;;;;8.77;2.80;;;;;;;24.69;46.59;100909.88;5026965;28;20484;-61
2023/07/11 06:11:01;;;;;;;9.30;2.80;;;;;;;24.83;46.38;100921.94;5029666;28;20060;-60
2023/07/11 06:13:31;;;;;;;8.27;2.67;;;;;;;24.62;46.60;100916.31;5029698;28;20061;-61
2023/07/11 06:16:00;;;;;;;8.98;2.65;;;;;;;24.99;46.04;100913.88;5024815;28;20422;-61
2023/07/11 06:18:29;;;;;;;8.52;2.83;;;;;;;25.05;45.55;100917.09;5027315;28;20041;-61
2023/07/11 06:20:56;;;;;;;15.25;2.65;;;;;;;24.76;46.04;100915.53;5010353;28;20049;-60
2023/07/11 06:23:24;;;;;;;9.43;2.78;;;;;;;24.94;45.97;100914.28;5024122;28;20057;-60
2023/07/11 06:25:51;;;;;;;12.32;2.58;;;;;;;25.02;46.01;100907.41;5027011;28;20412;-60
2023/07/11 06:28:20;;;;;;;11.70;3.03;;;;;;;24.85;45.97;100910.28;5027717;28;20894;-60
2023/07/11 06:30:47;;;;;;;8.70;2.40;;;;;;;24.94;46.18;100905.03;5027464;28;20053;-60
2023/07/11 06:33:17;;;;;;;12.65;2.65;;;;;;;24.72;46.36;100909.09;5018919;28;20068;-60
2023/07/11 06:35:51;;;;;;;13.60;3.30;;;;;;;24.38;47.36;100905.84;5023772;28;20049;-61
2023/07/11 06:38:19;;;;;;;12.05;2.90;;;;;;;24.59;47.05;100905.03;5023448;28;20060;-60
2023/07/11 06:40:51;;;;;;;11.25;2.97;;;;;;;24.40;47.11;100909.91;5024884;28;20049;-61
2023/07/11 06:43:20;;;;;;;11.77;3.30;;;;;;;24.60;47.34;100906.66;5008117;28;20042;-60
2023/07/11 06:45:48;;;;;;;10.52;3.10;;;;;;;24.80;46.59;100900.22;5032055;28;20052;-61
2023/07/11 06:48:17;;;;;;;8.77;2.75;;;;;;;25.02;46.51;100912.28;5023524;27;20514;-60
2023/07/11 06:50:55;;;;;;;11.20;2.53;;;;;;;24.90;45.73;100905.03;5022529;28;20551;-61
2023/07/11 06:53:26;;;;;;;11.70;3.25;;;;;;;24.35;48.01;100909.50;5021693;28;20583;-59
2023/07/11 06:55:54;;;;;;;14.85;3.03;;;;;;;23.87;49.22;100903.34;5022819;28;20056;-62
2023/07/11 06:58:22;;;;;;;8.93;2.63;;;;;;;23.74;49.94;100893.69;5023982;28;20037;-60
2023/07/11 07:01:16;;;;;;;8.65;2.70;;;;;;;23.96;49.44;100900.97;5020054;28;20053;-61
2023/07/11 07:04:01;;;;;;;12.00;2.90;;;;;;;24.25;48.77;100891.38;5019580;28;20044;-61
2023/07/11 07:06:31;;;;;;;14.20;3.10;;;;;;;24.27;48.13;100891.78;5020637;27;20045;-63
2023/07/11 07:09:00;;;;;;;7.80;2.53;;;;;;;24.81;46.78;100893.38;5021427;28;20042;-61
2023/07/11 07:11:27;;;;;;;8.75;2.85;;;;;;;24.73;46.72;100900.25;5025300;28;20041;-62
2023/07/11 07:13:55;;;;;;;9.05;2.67;;;;;;;24.89;47.05;100885.72;5024287;28;20053;-61
2023/07/11 07:16:36;;;;;;;9.75;2.92;;;;;;;24.93;46.63;100892.16;5010777;28;20052;-61
2023/07/11 07:19:11;;;;;;;9.93;2.58;;;;;;;25.45;45.19;100885.56;5022422;28;20420;-61
2023/07/11 07:21:39;;;;;;;10.93;2.90;;;;;;;25.50;45.06;100883.13;5021125;28;20053;-61
2023/07/11 07:24:07;;;;;;;7.25;2.90;;;;;;;25.64;44.92;100885.06;5018774;28;20072;-62
2023/07/11 07:26:34;;;;;;;7.90;2.65;;;;;;;25.30;45.15;100886.78;5008842;28;20053;-61
2023/07/11 07:29:02;;;;;;;11.65;2.78;;;;;;;25.17;45.46;100888.44;5025816;28;20060;-60
2023/07/11 07:31:30;;;;;;;12.18;2.80;;;;;;;25.52;44.76;100880.66;5027457;28;20072;-60
2023/07/11 07:33:57;;;;;;;7.53;2.83;;;;;;;25.73;44.34;100874.13;5020870;28;20050;-61
2023/07/11 07:36:25;;;;;;;11.48;2.70;;;;;;;25.93;43.68;100868.72;5027031;27;20046;-59
2023/07/11 07:38:52;;;;;;;6.32;2.50;;;;;;;26.23;43.19;100866.13;5024526;28;20150;-60
2023/07/11 07:41:20;;;;;;;8.43;2.90;;;;;;;26.30;43.63;100866.88;5008086;28;20052;-60
2023/07/11 07:43:48;;;;;;;12.18;2.85;;;;;;;26.58;42.08;100863.78;5017284;28;20060;-60
2023/07/11 07:46:16;;;;;;;11.38;2.90;;;;;;;26.91;41.75;100859.44;5019630;28;20057;-61
2023/07/11 07:48:44;;;;;;;10.52;2.85;;;;;;;27.11;41.29;100857.56;5027581;28;20044;-60
2023/07/11 07:51:17;;;;;;;11.52;3.13;;;;;;;27.10;41.00;100855.97;5023053;28;20054;-60
2023/07/11 07:53:45;;;;;;;10.38;2.78;;;;;;;27.00;41.40;100854.09;5024606;28;20053;-61
2023/07/11 07:56:16;;;;;;;10.98;2.90;;;;;;;27.24;40.96;100852.97;5021336;28;20057;-61
2023/07/11 07:58:44;;;;;;;7.88;2.60;;;;;;;27.49;40.52;100853.50;5020413;28;20046;-59
2023/07/11 08:01:13;;;;;;;10.32;2.85;;;;;;;27.57;40.60;100857.00;5018939;28;20084;-59
2023/07/11 08:03:41;;;;;;;15.65;3.63;;;;;;;27.58;40.90;100850.13;5020197;28;20065;-59
2023/07/11 08:06:10;;;;;;;10.82;2.90;;;;;;;27.72;40.96;100847.88;5016602;28;20053;-60
2023/07/11 08:08:46;;;;;;;7.95;2.70;;;;;;;28.10;40.11;100840.06;5022396;28;20045;-61
2023/07/11 08:11:15;;;;;;;10.48;3.17;;;;;;;28.03;39.72;100830.88;5023671;28;20527;-62
2023/07/11 08:13:43;;;;;;;9.90;2.95;;;;;;;28.06;39.89;100827.97;5021671;28;20042;-60
2023/07/11 08:16:15;;;;;;;8.07;2.80;;;;;;;28.16;39.93;100827.00;5024133;28;20058;-60
2023/07/11 08:18:57;;;;;;;12.15;2.92;;;;;;;28.21;40.24;100828.56;5023853;28;20065;-60
2023/07/11 08:21:25;;;;;;;10.70;2.83;;;;;;;27.90;40.89;100818.50;5036057;27;20042;-60
2023/07/11 08:23:52;;;;;;;6.75;2.40;;;;;;;28.10;39.98;100813.75;5023597;28;20049;-61
2023/07/11 08:26:21;;;;;;;9.15;2.28;;;;;;;27.87;40.28;100808.84;5021925;28;20065;-61
2023/07/11 08:28:50;;;;;;;7.47;2.60;;;;;;;28.31;39.47;100813.41;5020411;28;20045;-60
2023/07/11 08:31:18;;;;;;;8.73;2.35;;;;;;;28.35;39.00;100817.75;5028501;28;20053;-62
2023/07/11 08:33:46;;;;;;;11.68;2.83;;;;;;;28.11;39.32;100812.53;5024955;28;20049;-59
2023/07/11 08:36:16;;;;;;;10.27;3.00;;;;;;;28.08;39.69;100810.56;5027645;27;20053;-61
2023/07/11 08:38:45;;;;;;;10.32;2.83;;;;;;;28.07;39.69;100806.13;5023046;28;20042;-60
2023/07/11 08:41:27;;;;;;;15.07;2.90;;;;;;;27.85;39.66;100805.63;5027696;28;20064;-59
2023/07/11 08:44:15;;;;;;;9.40;2.80;;;;;;;28.17;39.12;100813.66;5009227;28;20061;-63
2023/07/11 08:47:10;;;;;;;13.95;2.92;;;;;;;28.04;39.05;100802.13;5021004;28;20056;-60
2023/07/11 08:49:53;;;;;;;11.38;2.63;;;;;;;27.54;40.39;100810.56;5019675;28;20046;-58
2023/07/11 08:52:28;;;;;;;8.45;2.95;;;;;;;27.39;40.94;100806.31;5011839;28;20064;-60
2023/07/11 08:55:01;;;;;;;10.68;2.85;;;;;;;27.44;40.91;100799.41;5006942;28;20045;-64
2023/07/11 08:58:03;;;;;;;8.02;2.67;;;;;;;27.24;40.93;100806.91;5061513;28;20488;-67
2023/07/11 09:00:32;;;;;;;13.07;3.03;;;;;;;27.49;40.24;100798.91;5015082;28;20944;-72
2023/07/11 09:03:34;;;;;;;9.00;3.30;;;;;;;27.69;40.24;100789.31;5022157;28;20053;-62
2023/07/11 09:06:17;;;;;;;7.03;2.63;;;;;;;27.87;39.96;100791.03;5003181;28;20115;-63
2023/07/11 09:08:47;;;;;;;11.68;2.53;;;;;;;27.91;39.93;100784.16;4999283;28;20515;-61
2023/07/11 09:11:45;;;;;;;6.85;2.70;;;;;;;27.40;40.72;100781.66;5020065;28;20061;-60
2023/07/11 09:14:53;;;;;;;7.13;2.83;;;;;;;27.73;40.42;100781.56;5011387;28;20135;-61
2023/07/11 09:18:02;;;;;;;8.18;3.22;;;;;;;27.37;41.08;100771.22;5019510;28;20053;-60
2023/07/11 09:21:03;;;;;;;8.98;3.10;;;;;;;27.47;41.32;100775.91;4923591;28;20083;-61
2023/07/11 09:23:55;;;;;;;11.23;2.88;;;;;;;28.00;40.26;100775.88;4976682;28;21696;-61
2023/07/11 09:26:48;;;;;;;10.13;3.22;;;;;;;28.32;39.58;100772.50;5019969;28;20079;-62
2023/07/11 09:29:28;;;;;;;11.32;3.05;;;;;;;28.43;40.49;100775.94;4985194;28;20058;-63
2023/07/11 09:32:02;;;;;;;6.93;2.72;;;;;;;28.73;39.49;100767.28;5001534;28;20057;-62
2023/07/11 09:34:40;;;;;;;8.63;2.80;;;;;;;28.64;39.27;100767.06;5008542;28;20054;-62
2023/07/11 09:37:34;;;;;;;12.40;3.28;;;;;;;28.60;39.22;100764.28;5004750;28;20061;-62
2023/07/11 09:40:11;;;;;;;8.77;2.88;;;;;;;28.82;39.02;100755.34;5003372;28;20065;-64
2023/07/11 09:42:48;;;;;;;13.70;3.30;;;;;;;28.95;38.88;100757.09;5000610;28;20053;-62
2023/07/11 09:45:18;;;;;;;8.05;2.97;;;;;;;28.96;38.54;100757.91;4983484;28;20068;-62
2023/07/11 09:47:59;;;;;;;7.95;2.92;;;;;;;29.28;38.31;100752.34;4985844;28;20054;-61
2023/07/11 09:51:00;;;;;;;10.88;3.20;;;;;;;29.28;38.29;100740.97;4990924;28;20061;-61
2023/07/11 09:53:46;;;;;;;8.80;4.10;;;;;;;29.23;38.88;100736.63;4998170;28;20194;-64
2023/07/11 09:56:20;;;;;;;10.85;4.50;;;;;;;29.29;38.54;100736.94;4997679;28;20700;-61
2023/07/11 09:58:58;;;;;;;10.07;3.60;;;;;;;29.25;38.29;100737.00;5014230;28;20046;-64
2023/07/11 10:01:41;;;;;;;13.02;4.80;;;;;;;29.47;38.36;100734.44;4986467;28;20046;-62
2023/07/11 10:04:18;;;;;;;21.35;14.43;;;;;;;29.49;37.81;100724.25;4999263;28;20054;-62
2023/07/11 10:07:13;;;;;;;15.68;8.48;;;;;;;29.44;36.83;100715.47;4977401;28;20047;-64
2023/07/11 10:09:50;;;;;;;13.63;5.25;;;;;;;29.37;38.03;100709.97;4997449;28;20050;-68
2023/07/11 10:12:23;;;;;;;9.70;4.53;;;;;;;29.26;37.72;100700.88;4995846;28;20250;-62
2023/07/11 10:15:01;;;;;;;13.85;4.00;;;;;;;29.01;37.92;100698.63;4988264;28;20050;-62
2023/07/11 10:17:36;;;;;;;10.13;4.00;;;;;;;28.79;38.71;100705.97;4996192;28;20062;-64
2023/07/11 10:20:16;;;;;;;9.20;3.60;;;;;;;29.06;38.29;100688.78;4998561;28;20061;-62
2023/07/11 10:23:01;;;;;;;6.30;3.20;;;;;;;28.96;38.07;100701.16;5000634;28;20061;-62
2023/07/11 10:25:30;;;;;;;8.43;3.20;;;;;;;28.67;38.31;100701.78;5014119;28;20057;-63
2023/07/11 10:28:13;;;;;;;8.82;3.10;;;;;;;28.91;38.04;100701.69;4995346;28;20057;-62
2023/07/11 10:30:41;;;;;;;8.60;3.40;;;;;;;29.44;37.33;100692.75;5002243;28;20061;-63
2023/07/11 10:33:24;;;;;;;10.65;3.38;;;;;;;29.60;36.43;100689.94;5005819;28;20081;-69
2023/07/11 10:36:03;;;;;;;9.13;3.45;;;;;;;29.76;35.96;100678.63;5001372;28;20058;-65
2023/07/11 10:38:54;;;;;;;10.77;4.20;;;;;;;29.68;36.49;100682.84;4999860;28;20389;-64
2023/07/11 10:41:42;;;;;;;11.23;7.03;;;;;;;29.61;36.44;100675.28;5003084;28;20057;-64
2023/07/11 10:44:17;;;;;;;12.05;7.07;;;;;;;29.82;36.08;100677.63;5004019;28;20042;-63
2023/07/11 10:46:59;;;;;;;9.65;6.15;;;;;;;30.01;35.88;100669.41;4987258;28;20050;-64
2023/07/11 10:49:38;;;;;;;10.15;5.78;;;;;;;30.13;35.57;100674.38;5012592;28;20046;-63
2023/07/11 10:52:08;;;;;;;10.68;5.40;;;;;;;30.08;35.70;100666.38;4999655;28;20057;-63
2023/07/11 10:54:43;;;;;;;9.30;4.00;;;;;;;30.19;35.67;100666.88;5000249;28;20058;-63
2023/07/11 10:57:14;;;;;;;8.88;4.38;;;;;;;30.11;35.67;100649.22;5000348;28;20054;-63
2023/07/11 10:59:45;;;;;;;12.63;4.93;;;;;;;30.21;36.15;100653.84;5004064;28;20046;-63
2023/07/11 11:02:14;;;;;;;10.93;4.45;;;;;;;30.10;35.38;100641.16;5019815;28;20045;-62
2023/07/11 11:04:42;;;;;;;;;;;;;;;30.27;34.81;100635.00;5005323;28;20049;-62
2023/07/11 11:07:18;;;;;;;8.38;3.90;;;;;;;30.33;35.43;100636.06;5003435;28;19930;-62
2023/07/11 11:09:51;;;;;;;8.63;3.00;;;;;;;30.30;34.82;100625.56;4998686;28;20061;-63
2023/07/11 11:12:28;;;;;;;11.07;3.72;;;;;;;30.20;35.12;100623.03;5001568;28;20064;-62
2023/07/11 11:15:36;;;;;;;10.15;3.92;;;;;;;30.06;35.24;100629.13;5011458;28;20065;-62
2023/07/11 11:18:38;;;;;;;8.73;3.92;;;;;;;30.37;34.63;100625.38;5011234;28;20073;-63
2023/07/11 11:21:11;;;;;;;9.95;3.88;;;;;;;30.46;34.60;100622.66;5005099;28;20054;-62
2023/07/11 11:24:16;;;;;;;6.93;3.70;;;;;;;30.36;34.52;100615.25;5003662;28;20046;-61
2023/07/11 11:27:09;;;;;;;6.43;2.80;;;;;;;30.50;34.82;100620.53;5000170;28;20047;-63
2023/07/11 11:30:00;;;;;;;17.17;3.50;;;;;;;30.78;34.52;100619.66;4998628;28;20530;-62
2023/07/11 11:32:38;;;;;;;7.00;3.40;;;;;;;30.82;34.20;100611.06;5006152;28;20053;-61
2023/07/11 11:35:15;;;;;;;9.20;2.83;;;;;;;30.98;33.85;100599.56;5002592;28;20050;-64
2023/07/11 11:38:11;;;;;;;5.47;2.70;;;;;;;31.05;33.43;100602.19;5003866;28;20057;-62
2023/07/11 11:40:41;;;;;;;6.93;2.85;;;;;;;31.10;33.31;100590.22;5003601;28;20686;-62
2023/07/11 11:43:14;;;;;;;6.47;3.20;;;;;;;31.21;33.23;100587.03;5003414;28;20057;-62
2023/07/11 11:45:48;;;;;;;18.30;12.23;;;;;;;31.36;33.22;100576.78;4997348;28;20049;-61
2023/07/11 11:48:26;;;;;;;20.15;13.48;;;;;;;31.39;33.26;100579.50;5006182;28;20486;-61
2023/07/11 11:50:58;;;;;;;14.88;6.90;;;;;;;31.47;32.75;100580.06;5011521;28;20744;-62